createdAt,value
2017-11-20T00:02:00.717Z,8.30
2017-11-20T00:04:28.615Z,9.20
2017-11-20T00:06:57.070Z,9.70
2017-11-20T00:09:24.736Z,5.77
2017-11-20T00:11:52.361Z,11.40
2017-11-20T00:14:20.047Z,7.60
2017-11-20T00:16:47.673Z,10.60
2017-11-20T00:19:15.363Z,10.27
2017-11-20T00:21:43.030Z,10.07
2017-11-20T00:24:10.653Z,6.23
2017-11-20T00:26:38.309Z,11.30
2017-11-20T00:29:05.925Z,12.53
2017-11-20T00:31:33.574Z,7.10
2017-11-20T00:34:01.221Z,12.37
2017-11-20T00:36:28.918Z,11.13
2017-11-20T00:38:57.309Z,8.97
2017-11-20T00:41:25.703Z,10.63
2017-11-20T00:43:53.353Z,6.80
2017-11-20T00:46:20.969Z,8.47
2017-11-20T00:48:48.644Z,7.03
2017-11-20T00:51:16.267Z,9.90
2017-11-20T00:53:43.897Z,8.17
2017-11-20T00:56:11.570Z,6.73
2017-11-20T00:58:39.185Z,9.47
2017-11-20T01:01:06.844Z,6.73
2017-11-20T01:03:34.461Z,5.20
2017-11-20T01:06:02.133Z,11.10
2017-11-20T01:08:29.774Z,13.33
2017-11-20T01:10:57.398Z,10.47
2017-11-20T01:13:25.796Z,8.13
2017-11-20T01:15:53.403Z,5.20
2017-11-20T01:18:21.073Z,9.00
2017-11-20T01:20:48.697Z,10.13
2017-11-20T01:23:16.361Z,9.07
2017-11-20T01:25:44.001Z,11.67
2017-11-20T01:28:11.656Z,7.53
2017-11-20T01:30:39.276Z,7.07
2017-11-20T01:33:06.995Z,9.53
2017-11-20T01:35:34.658Z,13.00
2017-11-20T01:38:02.281Z,5.93
2017-11-20T01:40:29.945Z,7.20
2017-11-20T01:42:57.581Z,7.77
2017-11-20T01:45:26.084Z,9.07
2017-11-20T01:47:53.973Z,7.40
2017-11-20T01:50:21.642Z,8.17
2017-11-20T01:52:49.300Z,7.87
2017-11-20T01:55:17.115Z,8.37
2017-11-20T01:57:45.550Z,12.23
2017-11-20T02:00:13.230Z,6.57
2017-11-20T02:02:52.621Z,9.50
2017-11-20T02:05:20.260Z,7.33
2017-11-20T02:07:48.738Z,9.13
2017-11-20T02:10:16.432Z,11.33
2017-11-20T02:12:44.105Z,11.07
2017-11-20T02:15:11.798Z,9.47
2017-11-20T02:17:39.499Z,12.20
2017-11-20T02:20:07.172Z,8.07
2017-11-20T02:22:34.881Z,9.93
2017-11-20T02:25:02.593Z,9.73
2017-11-20T02:27:30.288Z,10.00
2017-11-20T02:29:58.000Z,10.30
2017-11-20T02:32:25.672Z,7.23
2017-11-20T02:34:53.372Z,9.13
2017-11-20T02:37:21.058Z,7.63
2017-11-20T02:39:49.568Z,8.43
2017-11-20T02:42:17.266Z,7.80
2017-11-20T02:44:44.942Z,8.70
2017-11-20T02:47:12.656Z,9.00
2017-11-20T02:49:40.372Z,9.13
2017-11-20T02:52:08.113Z,8.37
2017-11-20T02:54:35.828Z,9.17
2017-11-20T02:57:03.529Z,8.67
2017-11-20T02:59:31.235Z,8.30
2017-11-20T03:01:59.645Z,7.20
2017-11-20T03:04:27.298Z,9.80
2017-11-20T03:06:55.714Z,5.90
2017-11-20T03:09:24.214Z,9.17
2017-11-20T03:11:52.244Z,8.60
2017-11-20T03:14:20.710Z,12.37
2017-11-20T03:16:48.405Z,5.20
2017-11-20T03:19:16.064Z,10.00
2017-11-20T03:21:43.706Z,7.63
2017-11-20T03:24:11.383Z,10.30
2017-11-20T03:26:39.036Z,6.87
2017-11-20T03:29:06.702Z,6.67
2017-11-20T03:31:34.365Z,8.20
2017-11-20T03:34:02.031Z,7.10
2017-11-20T03:36:29.728Z,6.70
2017-11-20T03:38:58.158Z,7.90
2017-11-20T03:41:25.821Z,11.53
2017-11-20T03:43:53.528Z,12.27
2017-11-20T03:46:21.925Z,11.07
2017-11-20T03:48:49.611Z,7.13
2017-11-20T03:51:17.252Z,8.87
2017-11-20T03:53:44.913Z,9.70
2017-11-20T03:56:12.575Z,10.20
2017-11-20T03:58:40.256Z,10.37
2017-11-20T04:01:07.873Z,11.27
2017-11-20T04:03:35.480Z,6.10
2017-11-20T04:06:03.120Z,9.63
2017-11-20T04:08:30.764Z,7.60
2017-11-20T04:10:58.408Z,8.97
2017-11-20T04:13:26.809Z,9.70
2017-11-20T04:15:54.464Z,11.80
2017-11-20T04:18:22.094Z,11.43
2017-11-20T04:20:50.592Z,12.07
2017-11-20T04:23:18.205Z,12.70
2017-11-20T04:25:45.871Z,7.80
2017-11-20T04:28:13.516Z,10.80
2017-11-20T04:30:41.372Z,9.70
2017-11-20T04:33:09.087Z,10.93
2017-11-20T04:35:37.574Z,11.00
2017-11-20T04:38:05.259Z,13.87
2017-11-20T04:40:32.908Z,8.80
2017-11-20T04:43:00.602Z,9.97
2017-11-20T04:45:28.292Z,9.70
2017-11-20T04:47:55.999Z,9.80
2017-11-20T04:50:23.693Z,15.47
2017-11-20T04:52:51.383Z,10.37
2017-11-20T04:55:19.837Z,13.50
2017-11-20T04:57:47.481Z,15.77
2017-11-20T05:00:15.216Z,12.30
2017-11-20T05:02:42.836Z,12.60
2017-11-20T05:05:10.500Z,11.87
2017-11-20T05:07:38.898Z,10.97
2017-11-20T05:10:06.564Z,11.07
2017-11-20T05:12:34.193Z,14.23
2017-11-20T05:15:02.636Z,14.37
2017-11-20T05:17:30.248Z,14.50
2017-11-20T05:19:58.668Z,12.17
2017-11-20T05:22:26.285Z,15.20
2017-11-20T05:24:54.709Z,14.53
2017-11-20T05:27:22.346Z,15.83
2017-11-20T05:29:50.000Z,13.20
2017-11-20T05:32:17.675Z,11.90
2017-11-20T05:34:45.331Z,18.23
2017-11-20T05:37:12.962Z,12.40
2017-11-20T05:39:41.383Z,14.23
2017-11-20T05:42:09.033Z,15.73
2017-11-20T05:44:36.847Z,17.70
2017-11-20T05:47:04.507Z,20.20
2017-11-20T05:49:32.137Z,14.13
2017-11-20T05:51:59.808Z,13.63
2017-11-20T05:54:27.540Z,14.80
2017-11-20T05:56:55.165Z,13.97
2017-11-20T05:59:23.541Z,15.93
2017-11-20T06:01:51.957Z,19.43
2017-11-20T06:04:19.593Z,13.97
2017-11-20T06:06:47.257Z,23.40
2017-11-20T06:09:14.882Z,17.50
2017-11-20T06:11:42.537Z,15.53
2017-11-20T06:14:10.161Z,14.80
2017-11-20T06:16:37.777Z,14.03
2017-11-20T06:19:06.244Z,15.87
2017-11-20T06:21:34.656Z,17.73
2017-11-20T06:24:02.332Z,20.47
2017-11-20T06:26:29.955Z,16.90
2017-11-20T06:28:58.388Z,15.50
2017-11-20T06:31:26.014Z,11.50
2017-11-20T06:33:53.623Z,11.70
2017-11-20T06:36:21.312Z,12.43
2017-11-20T06:38:48.938Z,13.93
2017-11-20T06:41:16.600Z,12.40
2017-11-20T06:43:44.224Z,13.63
2017-11-20T06:46:11.896Z,13.90
2017-11-20T06:48:39.533Z,11.50
2017-11-20T06:51:07.192Z,21.10
2017-11-20T06:53:34.805Z,11.90
2017-11-20T06:56:02.449Z,12.07
2017-11-20T06:58:30.057Z,13.87
2017-11-20T07:00:57.707Z,10.57
2017-11-20T07:03:26.085Z,12.53
2017-11-20T07:05:54.492Z,10.67
2017-11-20T07:08:22.112Z,12.90
2017-11-20T07:10:50.528Z,16.17
2017-11-20T07:13:18.268Z,13.37
2017-11-20T07:15:46.689Z,12.93
2017-11-20T07:18:14.342Z,8.90
2017-11-20T07:20:42.723Z,11.47
2017-11-20T07:23:10.401Z,12.87
2017-11-20T07:25:46.979Z,13.80
2017-11-20T07:28:14.669Z,9.13
2017-11-20T07:30:54.268Z,9.70
2017-11-20T07:33:21.944Z,12.97
2017-11-20T07:36:01.498Z,10.70
2017-11-20T07:38:41.732Z,8.73
2017-11-20T07:41:09.460Z,11.80
2017-11-20T07:43:37.076Z,9.13
2017-11-20T07:46:05.508Z,18.47
2017-11-20T07:48:33.167Z,10.63
2017-11-20T07:51:00.826Z,16.77
2017-11-20T07:53:28.490Z,15.13
2017-11-20T07:55:56.224Z,11.83
2017-11-20T07:58:23.874Z,12.47
2017-11-20T08:00:51.508Z,11.73
2017-11-20T08:03:19.168Z,11.47
2017-11-20T08:05:46.785Z,11.10
2017-11-20T08:08:14.462Z,13.23
2017-11-20T08:10:42.147Z,10.20
2017-11-20T08:13:09.761Z,13.17
2017-11-20T08:15:37.445Z,10.60
2017-11-20T08:18:05.064Z,10.87
2017-11-20T08:20:32.716Z,9.53
2017-11-20T08:23:00.336Z,9.30
2017-11-20T08:25:28.025Z,9.73
2017-11-20T08:27:55.678Z,12.60
2017-11-20T08:30:24.057Z,10.23
2017-11-20T08:32:52.492Z,8.77
2017-11-20T08:35:20.101Z,13.60
2017-11-20T08:37:47.762Z,10.87
2017-11-20T08:40:16.136Z,14.50
2017-11-20T08:42:44.580Z,10.73
2017-11-20T08:45:12.215Z,13.80
2017-11-20T08:47:39.919Z,14.60
2017-11-20T08:50:07.541Z,12.77
2017-11-20T08:52:35.161Z,13.23
2017-11-20T08:55:02.841Z,16.50
2017-11-20T08:57:30.471Z,9.23
2017-11-20T08:59:58.888Z,11.10
2017-11-20T09:02:26.537Z,9.57
2017-11-20T09:04:54.266Z,9.33
2017-11-20T09:07:22.692Z,9.43
2017-11-20T09:09:50.356Z,8.93
2017-11-20T09:12:18.053Z,9.33
2017-11-20T09:14:45.688Z,9.47
2017-11-20T09:17:13.379Z,10.17
2017-11-20T09:19:41.807Z,9.57
2017-11-20T09:22:09.477Z,12.73
2017-11-20T09:24:37.142Z,10.03
2017-11-20T09:27:04.841Z,10.77
2017-11-20T09:29:32.518Z,11.00
2017-11-20T09:32:00.205Z,8.90
2017-11-20T09:34:28.642Z,12.03
2017-11-20T09:36:57.084Z,6.00
2017-11-20T09:39:24.787Z,11.00
2017-11-20T09:41:53.269Z,8.87
2017-11-20T09:44:21.748Z,6.93
2017-11-20T09:46:50.192Z,6.70
2017-11-20T09:49:17.972Z,13.00
2017-11-20T09:51:45.738Z,9.17
2017-11-20T09:54:14.306Z,10.17
2017-11-20T09:56:42.073Z,10.90
2017-11-20T09:59:09.761Z,7.70
2017-11-20T10:01:37.479Z,12.00
2017-11-20T10:04:05.162Z,8.57
2017-11-20T10:06:32.901Z,11.47
2017-11-20T10:09:00.588Z,12.80
2017-11-20T10:11:28.330Z,17.70
2017-11-20T10:13:56.001Z,8.43
2017-11-20T10:16:23.691Z,11.07
2017-11-20T10:18:51.396Z,9.73
2017-11-20T10:21:19.197Z,9.00
2017-11-20T10:23:46.934Z,15.93
2017-11-20T10:26:14.650Z,13.13
2017-11-20T10:28:42.391Z,11.90
2017-11-20T10:31:10.822Z,12.30
2017-11-20T10:33:38.567Z,12.83
2017-11-20T10:36:06.277Z,11.83
2017-11-20T10:38:33.999Z,10.93
2017-11-20T10:41:02.455Z,13.30
2017-11-20T10:43:30.182Z,10.93
2017-11-20T10:45:58.669Z,11.00
2017-11-20T10:48:27.144Z,12.87
2017-11-20T10:50:54.895Z,12.13
2017-11-20T10:53:22.581Z,15.17
2017-11-20T10:55:51.056Z,12.40
2017-11-20T10:58:19.557Z,18.13
2017-11-20T11:00:47.309Z,11.93
2017-11-20T11:03:15.025Z,10.73
2017-11-20T11:05:42.757Z,12.50
2017-11-20T11:08:10.518Z,14.00
2017-11-20T11:10:38.249Z,14.70
2017-11-20T11:13:06.750Z,12.50
2017-11-20T11:15:34.449Z,10.60
2017-11-20T11:18:02.185Z,16.53
2017-11-20T11:20:29.917Z,12.30
2017-11-20T11:22:57.713Z,14.53
2017-11-20T11:25:25.404Z,19.63
2017-11-20T11:27:53.102Z,14.20
2017-11-20T11:30:21.605Z,16.73
2017-11-20T11:32:49.298Z,11.77
2017-11-20T11:35:17.017Z,17.23
2017-11-20T11:37:44.726Z,15.07
2017-11-20T11:40:12.489Z,17.03
2017-11-20T11:42:40.210Z,13.17
2017-11-20T11:45:07.968Z,14.10
2017-11-20T11:47:35.701Z,12.90
2017-11-20T11:50:04.157Z,12.87
2017-11-20T11:52:31.847Z,16.23
2017-11-20T11:55:00.340Z,17.03
2017-11-20T11:57:29.033Z,11.07
2017-11-20T11:59:56.748Z,14.40
2017-11-20T12:02:24.443Z,13.33
2017-11-20T12:04:52.937Z,10.67
2017-11-20T12:07:20.828Z,12.33
2017-11-20T12:09:48.605Z,14.40
2017-11-20T12:12:16.311Z,12.20
2017-11-20T12:14:44.795Z,20.83
2017-11-20T12:17:13.287Z,13.10
2017-11-20T12:19:41.014Z,14.70
2017-11-20T12:22:09.466Z,12.37
2017-11-20T12:24:37.205Z,13.40
2017-11-20T12:27:04.889Z,13.87
2017-11-20T12:29:32.666Z,12.90
2017-11-20T12:32:00.357Z,13.13
2017-11-20T12:34:28.821Z,11.83
2017-11-20T12:36:57.326Z,12.77
2017-11-20T12:39:25.065Z,14.23
2017-11-20T12:41:52.743Z,16.23
2017-11-20T12:44:21.188Z,9.33
2017-11-20T12:46:48.953Z,9.13
2017-11-20T12:49:16.666Z,12.07
2017-11-20T12:51:44.387Z,9.10
2017-11-20T12:54:12.062Z,12.20
2017-11-20T12:56:40.541Z,10.30
2017-11-20T12:59:08.966Z,6.47
2017-11-20T13:01:36.714Z,5.70
2017-11-20T13:04:04.468Z,6.00
2017-11-20T13:06:32.479Z,6.03
2017-11-20T13:09:00.234Z,9.43
2017-11-20T13:11:27.952Z,5.40
2017-11-20T13:13:55.744Z,5.20
2017-11-20T13:16:23.433Z,17.33
2017-11-20T13:18:51.184Z,6.73
2017-11-20T13:21:18.891Z,8.37
2017-11-20T13:23:46.576Z,11.70
2017-11-20T13:26:14.565Z,6.90
2017-11-20T13:28:42.825Z,8.80
2017-11-20T13:31:10.535Z,9.80
2017-11-20T13:33:39.350Z,9.63
2017-11-20T13:36:07.156Z,11.40
2017-11-20T13:38:34.874Z,11.13
2017-11-20T13:41:02.633Z,10.80
2017-11-20T13:43:30.341Z,10.27
2017-11-20T13:45:58.064Z,7.83
2017-11-20T13:48:25.744Z,8.43
2017-11-20T13:50:53.502Z,11.07
2017-11-20T13:53:21.219Z,9.20
2017-11-20T13:55:49.719Z,5.43
2017-11-20T13:58:18.174Z,9.00
2017-11-20T14:00:45.910Z,4.00
2017-11-20T14:03:13.645Z,6.87
2017-11-20T14:05:41.334Z,6.50
2017-11-20T14:08:09.041Z,4.53
2017-11-20T14:10:37.496Z,3.67
2017-11-20T14:13:05.248Z,3.90
2017-11-20T14:15:32.931Z,4.30
2017-11-20T14:18:00.696Z,3.57
2017-11-20T14:20:29.239Z,4.77
2017-11-20T14:22:56.995Z,3.00
2017-11-20T14:25:24.705Z,4.03
2017-11-20T14:27:53.173Z,2.47
2017-11-20T14:30:21.658Z,7.43
2017-11-20T14:32:49.438Z,8.13
2017-11-20T14:35:17.133Z,2.70
2017-11-20T14:37:44.868Z,3.37
2017-11-20T14:40:12.569Z,4.37
2017-11-20T14:42:40.352Z,2.20
2017-11-20T14:45:08.164Z,3.57
2017-11-20T14:47:38.812Z,2.87
2017-11-20T14:50:12.452Z,3.23
2017-11-20T14:52:43.173Z,5.53
2017-11-20T14:55:16.317Z,4.90
2017-11-20T14:57:44.474Z,1.90
2017-11-20T15:00:12.627Z,2.40
2017-11-20T15:02:41.085Z,2.97
2017-11-20T15:05:09.619Z,6.50
2017-11-20T15:07:37.298Z,3.30
2017-11-20T15:10:04.977Z,3.00
2017-11-20T15:12:32.696Z,4.60
2017-11-20T15:15:00.542Z,8.77
2017-11-20T15:17:29.027Z,4.33
2017-11-20T15:19:56.752Z,3.83
2017-11-20T15:22:24.505Z,3.50
2017-11-20T15:24:52.217Z,3.90
2017-11-20T15:27:19.960Z,7.40
2017-11-20T15:29:48.444Z,3.53
2017-11-20T15:32:16.908Z,6.93
2017-11-20T15:34:44.632Z,9.10
2017-11-20T15:37:12.368Z,7.70
2017-11-20T15:39:40.065Z,4.67
2017-11-20T15:42:07.773Z,5.60
2017-11-20T15:44:36.200Z,12.30
2017-11-20T15:47:03.808Z,5.80
2017-11-20T15:49:32.240Z,6.17
2017-11-20T15:51:59.917Z,7.30
2017-11-20T15:54:27.592Z,6.53
2017-11-20T15:56:56.012Z,5.57
2017-11-20T15:59:25.342Z,8.60
2017-11-20T16:01:52.981Z,8.13
2017-11-20T16:04:20.701Z,6.03
2017-11-20T16:06:49.113Z,6.00
2017-11-20T16:09:16.786Z,7.53
2017-11-20T16:11:44.490Z,6.77
2017-11-20T16:14:12.149Z,8.00
2017-11-20T16:16:40.629Z,7.33
2017-11-20T16:19:09.046Z,7.10
2017-11-20T16:21:36.821Z,6.37
2017-11-20T16:24:04.469Z,5.63
2017-11-20T16:26:32.140Z,8.30
2017-11-20T16:28:59.866Z,5.77
2017-11-20T16:31:28.495Z,6.17
2017-11-20T16:33:56.287Z,6.17
2017-11-20T16:36:23.980Z,4.60
2017-11-20T16:38:52.527Z,12.77
2017-11-20T16:41:20.192Z,5.63
2017-11-20T16:43:47.836Z,7.53
2017-11-20T16:46:15.603Z,8.97
2017-11-20T16:48:43.257Z,6.77
2017-11-20T16:51:10.929Z,4.60
2017-11-20T16:53:38.636Z,13.80
2017-11-20T16:56:06.268Z,5.63
2017-11-20T16:58:46.593Z,9.00
2017-11-20T17:01:14.264Z,6.47
2017-11-20T17:03:41.921Z,6.00
2017-11-20T17:06:09.576Z,7.13
2017-11-20T17:08:37.259Z,6.00
2017-11-20T17:11:05.684Z,6.10
2017-11-20T17:13:33.361Z,10.27
2017-11-20T17:16:00.988Z,6.97
2017-11-20T17:18:28.617Z,9.93
2017-11-20T17:20:56.266Z,5.90
2017-11-20T17:23:23.894Z,6.63
2017-11-20T17:25:51.535Z,7.30
2017-11-20T17:28:19.160Z,7.33
2017-11-20T17:30:47.584Z,10.60
2017-11-20T17:33:15.217Z,6.23
2017-11-20T17:35:42.932Z,6.83
2017-11-20T17:38:10.537Z,7.70
2017-11-20T17:40:38.981Z,10.60
2017-11-20T17:43:06.594Z,6.23
2017-11-20T17:45:34.284Z,7.73
2017-11-20T17:48:01.913Z,11.77
2017-11-20T17:50:29.529Z,6.93
2017-11-20T17:52:57.196Z,8.37
2017-11-20T17:55:25.624Z,10.57
2017-11-20T17:57:53.277Z,8.57
2017-11-20T18:00:20.953Z,10.43
2017-11-20T18:02:49.437Z,6.50
2017-11-20T18:05:17.064Z,6.77
2017-11-20T18:07:44.737Z,8.53
2017-11-20T18:10:12.358Z,9.47
2017-11-20T18:12:40.736Z,7.17
2017-11-20T18:15:09.245Z,6.13
2017-11-20T18:17:36.944Z,7.53
2017-11-20T18:20:04.670Z,6.90
2017-11-20T18:22:32.397Z,6.67
2017-11-20T18:25:00.251Z,12.40
2017-11-20T18:27:27.910Z,4.70
2017-11-20T18:29:55.645Z,8.67
2017-11-20T18:32:23.370Z,7.90
2017-11-20T18:34:51.081Z,4.23
2017-11-20T18:37:18.757Z,8.40
2017-11-20T18:39:46.468Z,3.80
2017-11-20T18:42:14.126Z,4.30
2017-11-20T18:44:41.867Z,3.17
2017-11-20T18:47:09.679Z,4.13
2017-11-20T18:49:37.402Z,4.10
2017-11-20T18:52:05.293Z,3.83
2017-11-20T18:54:33.213Z,2.87
2017-11-20T18:57:01.956Z,2.10
2017-11-20T18:59:29.772Z,3.07
2017-11-20T19:02:09.946Z,9.50
2017-11-20T19:04:49.638Z,6.10
2017-11-20T19:07:30.154Z,2.10
2017-11-20T19:09:58.045Z,4.63
2017-11-20T19:12:25.847Z,1.70
2017-11-20T19:14:53.533Z,4.37
2017-11-20T19:17:21.439Z,2.80
2017-11-20T19:19:49.311Z,3.07
2017-11-20T19:22:17.124Z,2.00
2017-11-20T19:24:44.845Z,2.27
2017-11-20T19:27:13.540Z,5.97
2017-11-20T19:29:42.124Z,3.23
2017-11-20T19:32:10.865Z,2.00
2017-11-20T19:34:38.709Z,2.93
2017-11-20T19:37:06.649Z,2.70
2017-11-20T19:39:35.156Z,2.40
2017-11-20T19:42:03.083Z,4.03
2017-11-20T19:44:31.674Z,0.90
2017-11-20T19:47:00.063Z,1.53
2017-11-20T19:49:27.981Z,1.20
2017-11-20T19:51:55.816Z,1.07
2017-11-20T19:54:23.795Z,1.00
2017-11-20T19:56:51.584Z,1.50
2017-11-20T19:59:19.563Z,2.20
2017-11-20T20:01:48.189Z,3.10
2017-11-20T20:04:16.149Z,1.60
2017-11-20T20:06:44.052Z,2.67
2017-11-20T20:09:11.928Z,1.70
2017-11-20T20:11:39.808Z,4.07
2017-11-20T20:14:19.295Z,1.23
2017-11-20T20:16:47.283Z,1.83
2017-11-20T20:19:15.086Z,1.70
2017-11-20T20:21:42.983Z,2.80
2017-11-20T20:24:10.765Z,1.87
2017-11-20T20:26:38.558Z,1.57
2017-11-20T20:29:07.161Z,1.30
2017-11-20T20:31:35.100Z,1.40
2017-11-20T20:34:03.972Z,2.63
2017-11-20T20:36:31.881Z,2.13
2017-11-20T20:39:00.503Z,1.40
2017-11-20T20:41:28.296Z,1.60
2017-11-20T20:43:56.305Z,4.30
2017-11-20T20:46:24.790Z,1.93
2017-11-20T20:48:52.527Z,2.43
2017-11-20T20:51:20.982Z,2.90
2017-11-20T20:53:48.626Z,4.40
2017-11-20T20:56:16.236Z,2.17
2017-11-20T20:58:44.702Z,1.53
2017-11-20T21:01:12.350Z,1.90
2017-11-20T21:03:40.012Z,1.57
2017-11-20T21:06:07.635Z,1.33
2017-11-20T21:08:35.399Z,3.10
2017-11-20T21:11:08.855Z,2.57
2017-11-20T21:13:37.597Z,7.93
2017-11-20T21:16:05.813Z,3.73
2017-11-20T21:18:34.205Z,3.53
2017-11-20T21:21:02.678Z,3.20
2017-11-20T21:23:30.779Z,1.57
2017-11-20T21:25:58.709Z,1.60
2017-11-20T21:28:27.566Z,1.47
2017-11-20T21:30:55.316Z,6.10
2017-11-20T21:33:23.433Z,1.70
2017-11-20T21:35:51.582Z,1.73
2017-11-20T21:38:19.506Z,3.20
2017-11-20T21:40:47.220Z,3.17
2017-11-20T21:43:15.660Z,2.33
2017-11-20T21:45:43.623Z,2.90
2017-11-20T21:48:11.667Z,2.97
2017-11-20T21:50:39.317Z,1.50
2017-11-20T21:53:07.334Z,3.00
2017-11-20T21:55:36.747Z,3.10
2017-11-20T21:58:05.178Z,2.43
2017-11-20T22:00:33.987Z,4.47
2017-11-20T22:03:01.870Z,5.60
2017-11-20T22:05:29.702Z,2.00
2017-11-20T22:07:58.783Z,2.67
2017-11-20T22:10:26.831Z,3.47
2017-11-20T22:15:53.877Z,1.50
2017-11-20T22:18:21.768Z,1.73
2017-11-20T22:20:49.616Z,1.40
2017-11-20T22:23:17.392Z,2.00
2017-11-20T22:25:45.050Z,2.90
2017-11-20T22:28:12.697Z,1.97
2017-11-20T22:30:41.110Z,2.10
2017-11-20T22:33:08.832Z,2.57
2017-11-20T22:35:37.222Z,1.77
2017-11-20T22:38:04.930Z,2.60
2017-11-20T22:40:32.573Z,3.17
2017-11-20T22:43:00.246Z,3.00
2017-11-20T22:45:27.896Z,3.53
2017-11-20T22:47:55.711Z,2.33
2017-11-20T22:50:24.129Z,2.37
2017-11-20T22:52:51.854Z,1.73
2017-11-20T22:55:20.245Z,2.03
2017-11-20T22:57:48.677Z,1.87
2017-11-20T23:00:16.317Z,2.00
2017-11-20T23:02:43.985Z,1.73
2017-11-20T23:05:11.660Z,2.60
2017-11-20T23:07:39.319Z,1.80
2017-11-20T23:10:06.992Z,1.57
2017-11-20T23:12:34.689Z,2.67
2017-11-20T23:15:02.418Z,1.50
2017-11-20T23:17:30.076Z,3.27
2017-11-20T23:19:57.712Z,1.60
2017-11-20T23:22:25.399Z,1.87
2017-11-20T23:24:57.694Z,2.60
2017-11-20T23:27:25.377Z,2.30
2017-11-20T23:29:53.000Z,2.73
2017-11-20T23:32:21.417Z,1.53
2017-11-20T23:34:49.044Z,2.23
2017-11-20T23:37:17.480Z,3.50
2017-11-20T23:39:45.088Z,1.77
2017-11-20T23:42:13.514Z,2.03
2017-11-20T23:44:41.171Z,2.43
2017-11-20T23:47:08.780Z,2.47
2017-11-20T23:49:37.232Z,1.70
2017-11-20T23:52:04.853Z,1.60
2017-11-20T23:54:37.396Z,2.03
2017-11-20T23:57:05.785Z,2.17
2017-11-20T23:59:33.447Z,2.20
